Time;durP1;ratioP1;P1;durP2;ratioP2;P2;SDS_P1;SDS_P2;PMS_P1;PMS_P2;Temp;Humidity;BMP_temperature;BMP_pressure;BME280_temperature;BME280_humidity;BME280_pressure;Samples;Min_cycle;Max_cycle;Signal;HPM_P1;HPM_P2
2022/04/03 00:00:13;;;;;;;;;;;2.00;99.90;;;;;;5038922;28;20418;-80
2022/04/03 00:02:42;;;;;;;;;;;2.00;99.90;;;;;;5034308;28;19932;-81
2022/04/03 00:05:09;;;;;;;;;;;2.00;99.90;;;;;;5031069;28;20318;-80
2022/04/03 00:07:36;;;;;;;;;;;2.00;99.90;;;;;;5025961;28;19944;-81
2022/04/03 00:10:04;;;;;;;;;;;1.90;99.90;;;;;;5032520;28;19924;-82
2022/04/03 00:12:31;;;;;;;;;;;1.90;99.90;;;;;;5029753;28;19925;-81
2022/04/03 00:14:57;;;;;;;;;;;1.90;99.90;;;;;;5025954;28;19937;-80
2022/04/03 00:17:24;;;;;;;;;;;2.00;99.90;;;;;;5046475;28;19940;-78
2022/04/03 00:19:53;;;;;;;;;;;1.90;99.90;;;;;;5029027;28;19924;-78
2022/04/03 00:22:19;;;;;;;;;;;1.90;99.90;;;;;;5043218;28;19936;-78
2022/04/03 00:24:46;;;;;;;;;;;1.90;99.90;;;;;;5026903;28;20387;-78
2022/04/03 00:27:13;;;;;;;;;;;1.90;99.90;;;;;;5030609;28;19925;-78
2022/04/03 00:29:40;;;;;;;;;;;1.90;99.90;;;;;;5030940;28;20494;-78
2022/04/03 00:32:07;;;;;;;;;;;1.90;99.90;;;;;;5010206;28;20362;-78
2022/04/03 00:34:34;;;;;;;;;;;1.90;99.90;;;;;;5023129;28;19980;-78
2022/04/03 00:37:03;;;;;;;;;;;1.90;99.90;;;;;;5011568;28;19983;-78
2022/04/03 00:39:30;;;;;;;;;;;1.90;99.90;;;;;;5029255;28;19994;-78
2022/04/03 00:41:57;;;;;;;;;;;1.90;99.90;;;;;;5028108;28;19936;-78
2022/04/03 00:44:24;;;;;;;;;;;1.90;99.90;;;;;;5032833;28;19931;-78
2022/04/03 00:46:52;;;;;;;;;;;1.90;99.90;;;;;;5031691;28;20400;-78
2022/04/03 00:49:19;;;;;;;;;;;1.90;99.90;;;;;;5032775;28;19931;-78
2022/04/03 00:51:46;;;;;;;;;;;1.90;99.90;;;;;;5026272;28;20015;-78
2022/04/03 00:54:14;;;;;;;;;;;1.80;99.90;;;;;;5029916;28;19983;-78
2022/04/03 00:56:41;;;;;;;;;;;1.80;99.90;;;;;;5031090;28;19960;-77
2022/04/03 00:59:09;;;;;;;;;;;1.90;99.90;;;;;;5008772;28;20031;-78
2022/04/03 01:01:39;;;;;;;;;;;1.80;99.90;;;;;;5028778;28;19925;-78
2022/04/03 01:04:07;;;;;;;;;;;1.80;99.90;;;;;;5030985;28;19932;-78
2022/04/03 01:06:35;;;;;;;;;;;1.80;99.90;;;;;;5034002;28;19925;-78
2022/04/03 01:09:02;;;;;;;;;;;1.80;99.90;;;;;;5028351;28;20306;-79
2022/04/03 01:11:31;;;;;;;;;;;1.80;99.90;;;;;;5045812;28;19940;-78
2022/04/03 01:13:58;;;;;;;;;;;1.80;99.90;;;;;;5030025;28;19933;-78
2022/04/03 01:16:25;;;;;;;;;;;1.80;99.90;;;;;;5025221;28;19925;-78
2022/04/03 01:18:52;;;;;;;;;;;1.80;99.90;;;;;;5026150;28;19925;-78
2022/04/03 01:21:20;;;;;;;;;;;1.80;99.90;;;;;;5030231;28;19937;-78
2022/04/03 01:23:47;;;;;;;;;;;1.80;99.90;;;;;;5011816;28;20405;-78
2022/04/03 01:26:16;;;;;;;;;;;1.80;99.90;;;;;;5008149;28;19929;-78
2022/04/03 01:28:43;;;;;;;;;;;1.80;99.90;;;;;;5034288;28;19929;-78
2022/04/03 01:31:10;;;;;;;;;;;1.80;99.90;;;;;;5028286;28;19959;-78
2022/04/03 01:33:37;;;;;;;;;;;1.80;99.90;;;;;;5026275;28;19929;-78
2022/04/03 01:36:05;;;;;;;;;;;1.80;99.90;;;;;;5028983;28;19925;-78
2022/04/03 01:38:32;;;;;;;;;;;1.80;99.90;;;;;;5030041;28;19925;-78
2022/04/03 01:40:59;;;;;;;;;;;1.80;99.90;;;;;;5042505;28;19925;-78
2022/04/03 01:43:27;;;;;;;;;;;1.80;99.90;;;;;;5005994;28;19936;-78
2022/04/03 01:45:54;;;;;;;;;;;1.80;99.90;;;;;;5041748;28;20369;-78
2022/04/03 01:48:21;;;;;;;;;;;1.80;99.90;;;;;;5044969;28;20292;-78
2022/04/03 01:50:48;;;;;;;;;;;1.80;99.90;;;;;;5025926;28;19940;-78
2022/04/03 01:53:17;;;;;;;;;;;1.80;99.90;;;;;;5030674;28;19929;-78
2022/04/03 01:55:44;;;;;;;;;;;1.80;99.90;;;;;;5013823;28;20399;-78
2022/04/03 01:58:10;;;;;;;;;;;1.80;99.90;;;;;;5032736;28;19974;-78
2022/04/03 02:00:40;;;;;;;;;;;1.80;99.90;;;;;;5006314;28;19933;-78
2022/04/03 02:03:07;;;;;;;;;;;1.80;99.90;;;;;;5029419;28;20378;-78
2022/04/03 02:05:34;;;;;;;;;;;1.80;99.90;;;;;;5029659;28;19925;-78
2022/04/03 02:08:02;;;;;;;;;;;1.80;99.90;;;;;;5046008;22;22059;-79
2022/04/03 02:10:29;;;;;;;;;;;1.80;99.90;;;;;;5070074;28;19924;-79
2022/04/03 02:12:56;;;;;;;;;;;1.70;99.90;;;;;;5070512;28;19931;-79
2022/04/03 02:15:23;;;;;;;;;;;1.70;99.90;;;;;;5071811;28;19932;-79
2022/04/03 02:17:51;;;;;;;;;;;1.70;99.90;;;;;;5066997;28;19986;-79
2022/04/03 02:20:18;;;;;;;;;;;1.70;99.90;;;;;;5074651;28;20045;-79
2022/04/03 02:22:45;;;;;;;;;;;1.70;99.90;;;;;;5069091;28;19931;-79
2022/04/03 02:25:13;;;;;;;;;;;1.70;99.90;;;;;;5073164;28;19979;-79
2022/04/03 02:27:41;;;;;;;;;;;1.70;99.90;;;;;;5066980;28;19925;-79
2022/04/03 02:30:09;;;;;;;;;;;1.70;99.90;;;;;;5066227;28;19932;-79
2022/04/03 02:32:37;;;;;;;;;;;1.70;99.90;;;;;;5072042;28;19982;-79
2022/04/03 02:35:07;;;;;;;;;;;1.70;99.90;;;;;;5065440;28;19932;-79
2022/04/03 02:37:34;;;;;;;;;;;1.70;99.90;;;;;;5066098;28;20345;-79
2022/04/03 02:40:01;;;;;;;;;;;1.70;99.90;;;;;;5067890;28;19924;-79
2022/04/03 02:42:28;;;;;;;;;;;1.70;99.90;;;;;;5066313;28;19925;-79
2022/04/03 02:44:55;;;;;;;;;;;1.70;99.90;;;;;;5064040;28;19925;-79
2022/04/03 02:47:23;;;;;;;;;;;1.70;99.90;;;;;;5063796;28;19944;-79
2022/04/03 02:49:51;;;;;;;;;;;1.70;99.90;;;;;;5066663;28;19932;-79
2022/04/03 02:52:19;;;;;;;;;;;1.70;99.90;;;;;;5064202;28;19936;-79
2022/04/03 02:54:47;;;;;;;;;;;1.70;99.90;;;;;;5063559;28;19924;-79
2022/04/03 02:57:14;;;;;;;;;;;1.70;99.90;;;;;;5073857;28;20491;-79
2022/04/03 02:59:41;;;;;;;;;;;1.70;99.90;;;;;;5062674;28;20409;-79
2022/04/03 03:02:08;;;;;;;;;;;1.70;99.90;;;;;;5068171;28;20283;-80
2022/04/03 03:04:35;;;;;;;;;;;1.70;99.90;;;;;;5065405;28;20305;-80
2022/04/03 03:07:02;;;;;;;;;;;1.70;99.90;;;;;;5069348;28;20398;-79
2022/04/03 03:09:32;;;;;;;;;;;1.70;99.90;;;;;;5061205;28;20394;-79
2022/04/03 03:11:59;;;;;;;;;;;1.70;99.90;;;;;;5064605;28;19925;-79
2022/04/03 03:14:26;;;;;;;;;;;1.70;99.90;;;;;;5071994;28;19924;-79
2022/04/03 03:16:53;;;;;;;;;;;1.70;99.90;;;;;;5060995;28;20336;-79
2022/04/03 03:19:20;;;;;;;;;;;1.70;99.90;;;;;;5084955;28;20360;-79
2022/04/03 03:21:47;;;;;;;;;;;1.70;99.90;;;;;;5079389;28;19963;-79
2022/04/03 03:24:14;;;;;;;;;;;1.70;99.90;;;;;;5067007;28;19925;-79
2022/04/03 03:26:42;;;;;;;;;;;1.70;99.90;;;;;;5068439;28;20019;-79
2022/04/03 03:29:11;;;;;;;;;;;1.60;99.90;;;;;;5061598;28;19929;-79
2022/04/03 03:31:38;;;;;;;;;;;1.60;99.90;;;;;;5064778;28;20019;-79
2022/04/03 03:34:05;;;;;;;;;;;1.70;99.90;;;;;;5064198;28;19979;-78
2022/04/03 03:36:32;;;;;;;;;;;1.70;99.90;;;;;;5073028;28;19924;-79
2022/04/03 03:38:59;;;;;;;;;;;1.60;99.90;;;;;;5061786;28;19932;-79
2022/04/03 03:41:25;;;;;;;;;;;1.60;99.90;;;;;;5067142;28;19937;-79
2022/04/03 03:43:54;;;;;;;;;;;1.70;99.90;;;;;;5066091;28;19925;-79
2022/04/03 03:46:21;;;;;;;;;;;1.60;99.90;;;;;;5065944;28;19925;-78
2022/04/03 03:48:48;;;;;;;;;;;1.70;99.90;;;;;;5062746;28;19928;-79
2022/04/03 03:51:15;;;;;;;;;;;1.60;99.90;;;;;;5059258;28;19931;-79
2022/04/03 03:53:42;;;;;;;;;;;1.60;99.90;;;;;;5065365;28;19964;-79
2022/04/03 03:56:09;;;;;;;;;;;1.60;99.90;;;;;;5062864;28;19928;-79
2022/04/03 03:58:36;;;;;;;;;;;1.60;99.90;;;;;;5074370;28;19970;-79
2022/04/03 04:01:04;;;;;;;;;;;1.70;99.90;;;;;;5069421;28;19932;-79
2022/04/03 04:03:31;;;;;;;;;;;1.60;99.90;;;;;;5070579;28;19931;-79
2022/04/03 04:05:58;;;;;;;;;;;1.60;99.90;;;;;;5071944;28;19929;-80
2022/04/03 04:08:25;;;;;;;;;;;1.60;99.90;;;;;;5068293;28;19924;-79
2022/04/03 04:10:52;;;;;;;;;;;1.60;99.90;;;;;;5070129;28;20330;-79
2022/04/03 04:13:20;;;;;;;;;;;1.60;99.90;;;;;;5066060;28;19931;-79
2022/04/03 04:15:46;;;;;;;;;;;1.60;99.90;;;;;;5066262;28;19924;-79
2022/04/03 04:18:15;;;;;;;;;;;1.60;99.90;;;;;;5066429;28;20348;-79
2022/04/03 04:20:42;;;;;;;;;;;1.60;99.90;;;;;;5067487;28;20008;-79
2022/04/03 04:23:10;;;;;;;;;;;1.60;99.90;;;;;;5057831;28;20015;-79
2022/04/03 04:25:37;;;;;;;;;;;1.60;99.90;;;;;;5067426;28;19936;-79
2022/04/03 04:28:04;;;;;;;;;;;1.60;99.90;;;;;;5085977;28;20346;-79
2022/04/03 04:30:31;;;;;;;;;;;1.60;99.90;;;;;;5069059;28;19933;-79
2022/04/03 04:32:58;;;;;;;;;;;1.60;99.90;;;;;;5071823;28;19924;-79
2022/04/03 04:35:27;;;;;;;;;;;1.60;99.90;;;;;;5070650;28;20024;-79
2022/04/03 04:37:54;;;;;;;;;;;1.60;99.90;;;;;;5065710;28;19932;-79
2022/04/03 04:40:21;;;;;;;;;;;1.60;99.90;;;;;;5061156;28;19935;-78
2022/04/03 04:42:49;;;;;;;;;;;1.60;99.90;;;;;;5070816;28;19955;-80
2022/04/03 04:45:16;;;;;;;;;;;1.60;99.90;;;;;;5067472;28;19925;-79
2022/04/03 04:47:43;;;;;;;;;;;1.60;99.90;;;;;;5075142;28;19943;-79
2022/04/03 04:50:14;;;;;;;;;;;1.60;99.90;;;;;;5070632;28;19931;-79
2022/04/03 04:52:42;;;;;;;;;;;1.60;99.90;;;;;;5059204;28;19924;-79
2022/04/03 04:55:10;;;;;;;;;;;1.70;99.90;;;;;;5075147;28;19929;-79
2022/04/03 04:57:38;;;;;;;;;;;1.60;99.90;;;;;;5061467;28;19984;-78
2022/04/03 05:00:06;;;;;;;;;;;1.60;99.90;;;;;;5069157;28;19972;-79
2022/04/03 05:02:33;;;;;;;;;;;1.60;99.90;;;;;;5063413;28;19924;-79
2022/04/03 05:05:00;;;;;;;;;;;1.60;99.90;;;;;;5068878;28;19998;-79
2022/04/03 05:07:28;;;;;;;;;;;1.60;99.90;;;;;;5064133;28;19925;-79
2022/04/03 05:09:56;;;;;;;;;;;1.60;99.90;;;;;;5069877;28;20366;-79
2022/04/03 05:12:23;;;;;;;;;;;1.60;99.90;;;;;;5068282;28;19978;-79
2022/04/03 05:14:50;;;;;;;;;;;1.60;99.90;;;;;;5066808;28;19929;-79
2022/04/03 05:17:17;;;;;;;;;;;1.60;99.90;;;;;;5108119;28;19912;-79
2022/04/03 05:19:44;;;;;;;;;;;1.60;99.90;;;;;;5097030;28;19924;-79
2022/04/03 05:22:11;;;;;;;;;;;1.60;99.90;;;;;;5071561;28;20655;-79
2022/04/03 05:24:38;;;;;;;;;;;1.60;99.90;;;;;;5068329;28;20034;-79
2022/04/03 05:27:06;;;;;;;;;;;1.60;99.90;;;;;;5067511;28;19928;-79
2022/04/03 05:29:34;;;;;;;;;;;1.60;99.90;;;;;;5065587;28;19931;-79
2022/04/03 05:32:01;;;;;;;;;;;1.60;99.90;;;;;;5063978;28;20015;-79
2022/04/03 05:34:28;;;;;;;;;;;1.60;99.90;;;;;;5066362;28;19970;-79
2022/04/03 05:36:55;;;;;;;;;;;1.60;99.90;;;;;;5066599;28;20025;-79
2022/04/03 05:39:22;;;;;;;;;;;1.60;99.90;;;;;;5065055;28;19939;-79
2022/04/03 05:41:53;;;;;;;;;;;1.60;99.90;;;;;;5065999;28;19929;-79
2022/04/03 05:44:22;;;;;;;;;;;1.60;99.90;;;;;;5056586;28;19925;-80
2022/04/03 05:46:49;;;;;;;;;;;1.60;99.90;;;;;;5058974;28;19956;-79
2022/04/03 05:49:16;;;;;;;;;;;1.60;99.90;;;;;;5068472;28;20348;-79
2022/04/03 05:51:43;;;;;;;;;;;1.60;99.90;;;;;;5064726;28;20338;-79
2022/04/03 05:54:10;;;;;;;;;;;1.60;99.90;;;;;;5070641;28;19925;-79
2022/04/03 05:56:40;;;;;;;;;;;1.60;99.90;;;;;;5063581;28;20021;-80
2022/04/03 05:59:08;;;;;;;;;;;1.60;99.90;;;;;;5067691;28;19935;-80
2022/04/03 06:01:37;;;;;;;;;;;1.60;99.90;;;;;;5072334;28;20409;-80
2022/04/03 06:04:04;;;;;;;;;;;1.60;99.90;;;;;;5064014;28;19932;-78
2022/04/03 06:06:34;;;;;;;;;;;1.60;99.90;;;;;;5063537;28;19931;-78
2022/04/03 06:09:01;;;;;;;;;;;1.60;99.90;;;;;;5063302;28;19929;-79
2022/04/03 06:11:28;;;;;;;;;;;1.60;99.90;;;;;;5056439;28;19924;-78
2022/04/03 06:13:55;;;;;;;;;;;1.60;99.90;;;;;;5056673;28;20015;-78
2022/04/03 06:16:22;;;;;;;;;;;1.60;99.90;;;;;;5061615;28;20441;-80
2022/04/03 06:18:53;;;;;;;;;;;1.60;99.90;;;;;;5065049;28;19932;-78
2022/04/03 06:21:20;;;;;;;;;;;1.60;99.90;;;;;;5061687;28;20371;-79
2022/04/03 06:23:47;;;;;;;;;;;1.60;99.90;;;;;;5063024;28;20023;-78
2022/04/03 06:26:14;;;;;;;;;;;1.60;99.90;;;;;;5059997;28;20409;-80
2022/04/03 06:28:42;;;;;;;;;;;1.60;99.90;;;;;;5062171;28;19928;-79
2022/04/03 06:31:09;;;;;;;;;;;1.60;99.90;;;;;;5061212;28;20493;-78
2022/04/03 06:33:37;;;;;;;;;;;1.60;99.90;;;;;;5061249;28;20027;-78
2022/04/03 06:36:06;;;;;;;;;;;1.60;99.90;;;;;;5061738;28;19933;-78
2022/04/03 06:38:33;;;;;;;;;;;1.60;99.90;;;;;;5063178;28;19932;-79
2022/04/03 06:41:00;;;;;;;;;;;1.60;99.90;;;;;;5067195;28;19925;-78
2022/04/03 06:43:28;;;;;;;;;;;1.60;99.90;;;;;;5061398;28;19930;-79
2022/04/03 06:45:55;;;;;;;;;;;1.60;99.90;;;;;;5059421;28;19944;-77
2022/04/03 06:48:23;;;;;;;;;;;1.70;99.90;;;;;;5064151;28;19932;-77
2022/04/03 06:50:50;;;;;;;;;;;1.70;99.90;;;;;;5061082;28;19933;-77
2022/04/03 06:53:18;;;;;;;;;;;1.70;99.90;;;;;;5061192;28;19932;-77
2022/04/03 06:55:45;;;;;;;;;;;1.60;99.90;;;;;;5060021;28;19981;-78
2022/04/03 06:58:12;;;;;;;;;;;1.60;99.90;;;;;;5062275;28;19950;-77
2022/04/03 07:00:40;;;;;;;;;;;1.60;99.90;;;;;;5059359;28;19940;-77
2022/04/03 07:03:07;;;;;;;;;;;1.70;99.90;;;;;;5057829;28;20029;-77
2022/04/03 07:05:34;;;;;;;;;;;1.60;99.90;;;;;;5063581;28;19924;-77
2022/04/03 07:08:00;;;;;;;;;;;1.70;99.90;;;;;;5064056;28;19932;-77
2022/04/03 07:10:29;;;;;;;;;;;1.70;99.90;;;;;;5063919;28;20275;-77
2022/04/03 07:12:59;;;;;;;;;;;1.70;99.90;;;;;;5061218;28;19924;-77
2022/04/03 07:15:26;;;;;;;;;;;1.70;99.90;;;;;;5061233;28;20297;-78
2022/04/03 07:17:53;;;;;;;;;;;1.70;99.90;;;;;;5066019;28;20342;-78
2022/04/03 07:20:20;;;;;;;;;;;1.70;99.90;;;;;;5058455;28;20391;-76
2022/04/03 07:22:47;;;;;;;;;;;1.70;99.90;;;;;;5063190;28;20382;-76
2022/04/03 07:25:14;;;;;;;;;;;1.70;99.90;;;;;;5061335;28;20344;-77
2022/04/03 07:27:42;;;;;;;;;;;1.70;99.90;;;;;;5061450;28;19928;-77
2022/04/03 07:30:13;;;;;;;;;;;1.70;99.90;;;;;;5060932;28;20403;-76
2022/04/03 07:32:40;;;;;;;;;;;1.80;99.90;;;;;;5063997;28;19974;-77
2022/04/03 07:35:08;;;;;;;;;;;1.80;99.90;;;;;;5062858;28;19925;-76
2022/04/03 07:37:35;;;;;;;;;;;1.80;99.90;;;;;;5066820;28;19974;-76
2022/04/03 07:40:03;;;;;;;;;;;1.80;99.90;;;;;;5065259;28;20451;-76
2022/04/03 07:42:30;;;;;;;;;;;1.80;99.90;;;;;;5067882;28;20011;-76
2022/04/03 07:44:59;;;;;;;;;;;1.80;99.90;;;;;;5068974;28;19924;-77
2022/04/03 07:47:26;;;;;;;;;;;1.80;99.90;;;;;;5061616;28;19940;-77
2022/04/03 07:49:53;;;;;;;;;;;1.80;99.90;;;;;;5063030;28;20163;-77
2022/04/03 07:52:20;;;;;;;;;;;1.80;99.90;;;;;;5064502;28;21566;-77
2022/04/03 07:54:47;;;;;;;;;;;1.90;99.90;;;;;;5066876;28;19963;-77
2022/04/03 07:57:14;;;;;;;;;;;1.90;99.90;;;;;;5061695;28;19932;-77
2022/04/03 07:59:41;;;;;;;;;;;1.90;99.90;;;;;;5066710;28;19937;-77
2022/04/03 08:02:09;;;;;;;;;;;1.90;99.90;;;;;;5061343;28;20631;-76
2022/04/03 08:04:36;;;;;;;;;;;1.90;99.90;;;;;;5064538;28;20005;-76
2022/04/03 08:07:03;;;;;;;;;;;1.90;99.90;;;;;;5066327;28;19932;-77
2022/04/03 08:09:30;;;;;;;;;;;1.90;99.90;;;;;;5060157;28;19933;-77
2022/04/03 08:11:57;;;;;;;;;;;1.90;99.90;;;;;;5067634;28;19929;-76
2022/04/03 08:14:24;;;;;;;;;;;1.90;99.90;;;;;;5061835;28;19924;-76
2022/04/03 08:16:51;;;;;;;;;;;1.90;99.90;;;;;;5061150;28;19977;-77
2022/04/03 08:19:19;;;;;;;;;;;2.00;99.90;;;;;;5063227;28;19971;-76
2022/04/03 08:21:46;;;;;;;;;;;2.00;99.90;;;;;;5071784;28;19928;-76
2022/04/03 08:24:14;;;;;;;;;;;2.00;99.90;;;;;;5078277;28;19939;-77
2022/04/03 08:26:41;;;;;;;;;;;2.00;99.90;;;;;;5061568;28;19925;-76
2022/04/03 08:29:07;;;;;;;;;;;2.00;99.90;;;;;;5136080;22;19925;-81
2022/04/03 08:31:34;;;;;;;;;;;2.00;99.90;;;;;;5068677;28;19932;-81
2022/04/03 08:34:01;;;;;;;;;;;2.00;99.90;;;;;;5068563;28;19924;-80
2022/04/03 08:36:30;;;;;;;;;;;2.00;99.90;;;;;;5071324;28;20492;-81
2022/04/03 08:38:57;;;;;;;;;;;2.00;99.90;;;;;;5070219;28;19928;-82
2022/04/03 08:41:23;;;;;;;;;;;2.10;99.90;;;;;;5061175;28;19924;-81
2022/04/03 08:43:51;;;;;;;;;;;2.10;99.90;;;;;;5070106;28;19971;-79
2022/04/03 08:46:18;;;;;;;;;;;2.10;99.90;;;;;;5071791;28;19956;-80
2022/04/03 08:48:46;;;;;;;;;;;2.10;99.90;;;;;;5066876;28;20267;-80
2022/04/03 08:51:13;;;;;;;;;;;2.10;99.90;;;;;;5070345;28;19925;-80
2022/04/03 08:53:44;;;;;;;;;;;2.10;99.90;;;;;;5070572;28;19929;-80
2022/04/03 08:56:11;;;;;;;;;;;2.10;99.90;;;;;;5066781;28;19924;-80
2022/04/03 08:58:38;;;;;;;;;;;2.10;99.90;;;;;;5069497;28;19940;-80
2022/04/03 09:01:05;;;;;;;;;;;2.10;99.90;;;;;;5065621;28;20042;-80
2022/04/03 09:03:32;;;;;;;;;;;2.20;99.90;;;;;;5068301;28;19924;-81
2022/04/03 09:06:23;;;;;;;;;;;2.20;99.90;;;;;;5065933;28;19929;-80
2022/04/03 09:08:51;;;;;;;;;;;2.20;99.90;;;;;;5067144;28;19960;-80
2022/04/03 09:11:18;;;;;;;;;;;2.20;99.90;;;;;;5065903;28;20442;-80
2022/04/03 09:13:45;;;;;;;;;;;2.30;99.90;;;;;;5067258;28;20429;-80
2022/04/03 09:16:13;;;;;;;;;;;2.20;99.90;;;;;;5071096;28;19931;-80
2022/04/03 09:18:43;;;;;;;;;;;2.30;99.90;;;;;;5069234;28;19924;-80
2022/04/03 09:21:20;;;;;;;;;;;2.30;99.90;;;;;;5065716;28;20359;-80
2022/04/03 09:23:58;;;;;;;;;;;2.30;99.90;;;;;;5062631;28;19951;-79
2022/04/03 09:26:25;;;;;;;;;;;2.30;99.90;;;;;;5070448;28;19942;-80
2022/04/03 09:29:05;;;;;;;;;;;2.30;99.90;;;;;;5068726;28;20340;-79
2022/04/03 09:31:32;;;;;;;;;;;2.40;99.90;;;;;;5067639;28;20309;-80
2022/04/03 09:33:59;;;;;;;;;;;2.40;99.90;;;;;;5060703;28;19924;-80
2022/04/03 09:36:29;;;;;;;;;;;2.40;99.90;;;;;;5069318;28;19935;-80
2022/04/03 09:39:06;;;;;;;;;;;2.40;99.90;;;;;;5064187;28;19925;-79
2022/04/03 09:41:33;;;;;;;;;;;2.40;99.90;;;;;;5065410;28;20250;-80
2022/04/03 09:44:00;;;;;;;;;;;2.40;99.90;;;;;;5070579;28;19924;-79
2022/04/03 09:46:30;;;;;;;;;;;2.40;99.90;;;;;;5070491;28;19935;-79
2022/04/03 09:48:57;;;;;;;;;;;2.40;99.90;;;;;;5065305;28;20402;-79
2022/04/03 09:51:24;;;;;;;;;;;2.40;99.90;;;;;;5067660;28;19950;-79
2022/04/03 09:53:52;;;;;;;;;;;2.40;99.90;;;;;;5066496;28;19940;-80
2022/04/03 09:56:31;;;;;;;;;;;2.40;99.90;;;;;;5067118;28;19931;-80
2022/04/03 09:58:58;;;;;;;;;;;2.40;99.90;;;;;;5067932;28;19972;-79
2022/04/03 10:01:27;;;;;;;;;;;2.50;99.90;;;;;;5066609;28;19925;-79
2022/04/03 10:03:54;;;;;;;;;;;2.50;99.90;;;;;;5054074;28;19928;-79
2022/04/03 10:06:23;;;;;;;;;;;2.50;99.90;;;;;;5064655;28;20450;-79
2022/04/03 10:08:51;;;;;;;;;;;2.50;99.90;;;;;;5067986;28;19943;-80
2022/04/03 10:11:17;;;;;;;;;;;2.50;99.90;;;;;;5069880;28;19928;-80
2022/04/03 10:13:46;;;;;;;;;;;2.50;99.90;;;;;;5069711;28;19936;-80
2022/04/03 10:16:13;;;;;;;;;;;2.50;99.90;;;;;;5065452;28;19928;-79
2022/04/03 10:18:40;;;;;;;;;;;2.50;99.90;;;;;;5065206;28;20345;-80
2022/04/03 10:21:09;;;;;;;;;;;2.50;99.90;;;;;;5071080;28;19986;-81
2022/04/03 10:23:38;;;;;;;;;;;2.60;99.90;;;;;;5069911;28;19924;-78
2022/04/03 10:26:06;;;;;;;;;;;2.50;99.90;;;;;;5066432;28;20460;-79
2022/04/03 10:28:35;;;;;;;;;;;2.60;99.90;;;;;;5068916;28;19928;-79
2022/04/03 10:31:07;;;;;;;;;;;2.60;99.90;;;;;;5068045;28;19939;-79
2022/04/03 10:33:38;;;;;;;;;;;2.70;99.90;;;;;;5066355;28;20049;-79
2022/04/03 10:36:05;;;;;;;;;;;2.70;99.90;;;;;;5069005;28;19986;-80
2022/04/03 10:38:36;;;;;;;;;;;2.70;99.90;;;;;;5070248;28;20394;-80
2022/04/03 10:41:03;;;;;;;;;;;2.70;99.90;;;;;;5068903;28;19963;-78
2022/04/03 10:43:30;;;;;;;;;;;2.70;99.90;;;;;;5070102;28;19928;-79
2022/04/03 10:45:57;;;;;;;;;;;2.70;99.90;;;;;;5072228;28;20281;-80
2022/04/03 10:48:27;;;;;;;;;;;2.80;99.90;;;;;;5070089;28;19924;-80
2022/04/03 10:51:01;;;;;;;;;;;2.80;99.90;;;;;;5067286;28;20006;-80
2022/04/03 10:53:31;;;;;;;;;;;2.80;99.90;;;;;;5063725;28;19925;-80
2022/04/03 10:55:59;;;;;;;;;;;2.80;99.90;;;;;;5063218;28;19936;-80
2022/04/03 10:58:38;;;;;;;;;;;2.80;99.90;;;;;;5070554;28;19949;-80
2022/04/03 11:01:05;;;;;;;;;;;2.80;99.90;;;;;;5066906;28;20298;-80
2022/04/03 11:03:37;;;;;;;;;;;2.80;99.90;;;;;;5071468;28;19933;-80
2022/04/03 11:06:23;;;;;;;;;;;2.90;99.90;;;;;;5068078;28;19924;-79
2022/04/03 11:09:00;;;;;;;;;;;2.90;99.90;;;;;;5068622;28;19924;-79
2022/04/03 11:11:37;;;;;;;;;;;2.90;99.90;;;;;;5066922;28;19928;-81
2022/04/03 11:14:06;;;;;;;;;;;2.90;99.90;;;;;;5068905;28;19925;-80
2022/04/03 11:16:49;;;;;;;;;;;2.90;99.90;;;;;;5070686;28;19970;-80
2022/04/03 11:19:31;;;;;;;;;;;2.90;99.90;;;;;;5072580;28;19940;-80
2022/04/03 11:21:59;;;;;;;;;;;2.90;99.90;;;;;;5071697;28;19929;-80
2022/04/03 11:24:27;;;;;;;;;;;2.90;99.90;;;;;;5072805;28;19968;-80
2022/04/03 11:26:55;;;;;;;;;;;2.90;99.90;;;;;;5070231;28;20382;-80
2022/04/03 11:29:22;;;;;;;;;;;2.90;99.90;;;;;;5067973;28;20043;-80
2022/04/03 11:31:51;;;;;;;;;;;2.90;99.90;;;;;;5066493;28;19989;-81
2022/04/03 11:34:18;;;;;;;;;;;2.90;99.90;;;;;;5070177;28;19933;-80
2022/04/03 11:36:45;;;;;;;;;;;2.90;99.90;;;;;;5068198;28;19925;-81
2022/04/03 11:39:13;;;;;;;;;;;2.90;99.90;;;;;;5065717;28;20337;-81
2022/04/03 11:41:40;;;;;;;;;;;3.00;99.90;;;;;;5069395;28;20017;-81
2022/04/03 11:44:08;;;;;;;;;;;2.90;99.90;;;;;;5068908;28;19943;-81
2022/04/03 11:46:39;;;;;;;;;;;3.00;99.90;;;;;;5066636;28;19925;-82
2022/04/03 11:49:10;;;;;;;;;;;2.90;99.90;;;;;;5068656;28;19925;-80
2022/04/03 11:51:37;;;;;;;;;;;3.00;99.90;;;;;;5070166;28;20027;-80
2022/04/03 11:54:04;;;;;;;;;;;3.00;99.90;;;;;;5069957;28;19924;-79
2022/04/03 11:56:35;;;;;;;;;;;3.00;99.90;;;;;;5069659;28;19956;-79
2022/04/03 11:59:03;;;;;;;;;;;3.00;99.90;;;;;;5070192;28;19968;-81
2022/04/03 12:01:31;;;;;;;;;;;3.00;99.90;;;;;;5068185;28;20011;-79
2022/04/03 12:04:01;;;;;;;;;;;3.00;99.90;;;;;;5061730;28;20409;-79
2022/04/03 12:06:30;;;;;;;;;;;3.00;99.90;;;;;;5063710;28;20335;-79
2022/04/03 12:08:57;;;;;;;;;;;3.00;99.90;;;;;;5070906;28;19932;-79
2022/04/03 12:11:25;;;;;;;;;;;3.00;99.90;;;;;;5070124;28;19928;-77
2022/04/03 12:13:54;;;;;;;;;;;3.00;99.90;;;;;;5071445;28;19930;-79
2022/04/03 12:16:22;;;;;;;;;;;3.00;99.90;;;;;;5068208;28;19924;-79
2022/04/03 12:18:50;;;;;;;;;;;3.00;99.90;;;;;;5069520;28;20429;-81
2022/04/03 12:21:17;;;;;;;;;;;3.00;99.90;;;;;;5067764;28;19935;-79
2022/04/03 12:24:03;;;;;;;;;;;3.10;99.90;;;;;;5068520;28;19931;-79
2022/04/03 12:26:30;;;;;;;;;;;3.10;99.90;;;;;;5065110;28;19968;-78
2022/04/03 12:28:58;;;;;;;;;;;3.00;99.90;;;;;;5067748;28;20015;-79
2022/04/03 12:31:29;;;;;;;;;;;3.00;99.90;;;;;;5058506;28;19932;-79
2022/04/03 12:34:12;;;;;;;;;;;3.00;99.90;;;;;;5066074;28;19932;-81
2022/04/03 12:36:43;;;;;;;;;;;3.00;99.90;;;;;;5065141;28;19928;-78
2022/04/03 12:39:30;;;;;;;;;;;3.00;99.90;;;;;;5070256;28;20437;-79
2022/04/03 12:41:57;;;;;;;;;;;3.00;99.90;;;;;;5067171;28;19929;-79
2022/04/03 12:44:25;;;;;;;;;;;3.10;99.90;;;;;;5069535;28;20000;-80
2022/04/03 12:46:52;;;;;;;;;;;3.00;99.90;;;;;;5068388;28;19931;-79
2022/04/03 12:49:20;;;;;;;;;;;3.10;99.90;;;;;;5068317;28;19933;-78
2022/04/03 12:51:47;;;;;;;;;;;3.00;99.90;;;;;;5068561;28;19937;-82
2022/04/03 12:54:14;;;;;;;;;;;3.00;99.90;;;;;;5068571;28;20291;-79
2022/04/03 12:59:38;;;;;;;;;;;3.10;99.90;;;;;;5042010;28;19924;-80
2022/04/03 13:02:06;;;;;;;;;;;3.00;99.90;;;;;;5070370;28;19924;-79
2022/04/03 13:04:32;;;;;;;;;;;3.10;99.90;;;;;;5070036;28;19925;-80
2022/04/03 13:06:59;;;;;;;;;;;3.10;99.90;;;;;;5071814;28;19924;-79
2022/04/03 13:09:27;;;;;;;;;;;3.10;99.90;;;;;;5070523;28;19960;-80
2022/04/03 13:11:54;;;;;;;;;;;3.10;99.90;;;;;;5068531;28;19932;-80
2022/04/03 13:14:23;;;;;;;;;;;3.10;99.90;;;;;;5069637;28;19931;-80
2022/04/03 13:16:53;;;;;;;;;;;3.10;99.90;;;;;;5069329;28;19925;-80
2022/04/03 13:19:22;;;;;;;;;;;3.10;99.90;;;;;;5070024;28;19936;-80
2022/04/03 13:21:49;;;;;;;;;;;3.10;99.90;;;;;;5070096;28;19932;-80
2022/04/03 13:24:16;;;;;;;;;;;3.10;99.90;;;;;;5067791;28;20327;-80
2022/04/03 13:26:43;;;;;;;;;;;3.10;99.90;;;;;;5065343;28;19928;-80
2022/04/03 13:29:12;;;;;;;;;;;3.10;99.90;;;;;;5068281;28;19925;-79
2022/04/03 13:31:39;;;;;;;;;;;3.10;99.90;;;;;;5069067;28;19933;-81
2022/04/03 13:34:08;;;;;;;;;;;3.10;99.90;;;;;;5070023;28;19924;-79
2022/04/03 13:36:35;;;;;;;;;;;3.10;99.90;;;;;;5066278;28;20418;-80
2022/04/03 13:39:04;;;;;;;;;;;3.10;99.90;;;;;;5068270;28;19972;-80
2022/04/03 13:41:31;;;;;;;;;;;3.10;99.90;;;;;;5064873;28;19925;-78
2022/04/03 13:43:58;;;;;;;;;;;3.10;99.90;;;;;;5067311;28;19979;-80
2022/04/03 13:46:26;;;;;;;;;;;3.10;99.90;;;;;;5068099;28;19936;-80
2022/04/03 13:48:52;;;;;;;;;;;3.10;99.90;;;;;;5071841;28;19932;-79
2022/04/03 13:51:21;;;;;;;;;;;3.10;99.90;;;;;;5065259;28;19933;-81
2022/04/03 13:53:48;;;;;;;;;;;3.10;99.90;;;;;;5068056;28;19928;-80
2022/04/03 13:56:17;;;;;;;;;;;3.10;99.90;;;;;;5070154;28;20370;-80
2022/04/03 13:58:44;;;;;;;;;;;3.10;99.90;;;;;;5068261;28;20382;-79
2022/04/03 14:01:11;;;;;;;;;;;3.10;99.90;;;;;;5070463;28;19925;-80
2022/04/03 14:03:39;;;;;;;;;;;3.10;99.90;;;;;;5070537;28;19928;-79
2022/04/03 14:06:05;;;;;;;;;;;3.10;99.90;;;;;;5064010;28;19932;-80
2022/04/03 14:08:34;;;;;;;;;;;3.10;99.90;;;;;;5069693;28;19924;-78
2022/04/03 14:11:01;;;;;;;;;;;3.10;99.90;;;;;;5064148;28;19940;-79
2022/04/03 14:13:30;;;;;;;;;;;3.10;99.90;;;;;;5065964;28;19928;-79
2022/04/03 14:15:58;;;;;;;;;;;3.10;99.90;;;;;;5066949;28;20390;-79
2022/04/03 14:18:25;;;;;;;;;;;3.10;99.90;;;;;;5065188;28;19940;-79
2022/04/03 14:20:52;;;;;;;;;;;3.10;99.90;;;;;;5065914;28;19924;-78
2022/04/03 14:23:18;;;;;;;;;;;3.10;99.90;;;;;;5067838;28;19928;-78
2022/04/03 14:25:47;;;;;;;;;;;3.10;99.90;;;;;;5059875;28;19939;-78
2022/04/03 14:28:14;;;;;;;;;;;3.10;99.90;;;;;;5066247;28;20391;-78
2022/04/03 14:30:41;;;;;;;;;;;3.10;99.90;;;;;;5068211;28;19928;-78
2022/04/03 14:33:08;;;;;;;;;;;3.10;99.90;;;;;;5064520;28;19931;-78
2022/04/03 14:35:36;;;;;;;;;;;3.10;99.90;;;;;;5060900;28;19936;-78
2022/04/03 14:38:05;;;;;;;;;;;3.10;99.90;;;;;;5068179;28;20059;-77